Time;durP1;ratioP1;P1;durP2;ratioP2;P2;SDS_P1;SDS_P2;PMS_P1;PMS_P2;Temp;Humidity;BMP_temperature;BMP_pressure;BME280_temperature;BME280_humidity;BME280_pressure;Samples;Min_cycle;Max_cycle;Signal;HPM_P1;HPM_P2
2022/06/19 00:02:06;;;;;;;14.4;3.5;;;;;;;19.06;68.55176;937.0914;;;;
2022/06/19 00:04:33;;;;;;;10.7;3.2;;;;;;;19.02;69.01172;937.0193;;;;
2022/06/19 00:07:08;;;;;;;8.9;3.8;;;;;;;19.04;68.74707;937.0078;;;;
2022/06/19 00:09:40;;;;;;;9.7;3.7;;;;;;;19.14;68.44824;937.0108;;;;
2022/06/19 00:12:05;;;;;;;10.8;4.3;;;;;;;19.04;68.7002;936.9512;;;;
2022/06/19 00:14:33;;;;;;;10.7;3.4;;;;;;;18.97;68.31641;937.0037;;;;
2022/06/19 00:17:09;;;;;;;11;3.8;;;;;;;19.05;68.3877;936.9639;;;;
2022/06/19 00:19:33;;;;;;;8.6;3.6;;;;;;;18.89;68.49023;937.017;;;;
2022/06/19 00:21:58;;;;;;;9.7;3.7;;;;;;;18.71;69.43945;936.9628;;;;
2022/06/19 00:24:23;;;;;;;7.6;3.4;;;;;;;18.66;69.59473;936.9738;;;;
2022/06/19 00:26:48;;;;;;;12.7;4.4;;;;;;;18.71;69.27637;936.9589;;;;
2022/06/19 00:29:16;;;;;;;9.5;3.5;;;;;;;18.71;68.82227;936.8702;;;;
2022/06/19 00:31:47;;;;;;;12.4;3.9;;;;;;;18.67;69.70215;936.8226;;;;
2022/06/19 00:34:12;;;;;;;10;3.5;;;;;;;18.68;70.00684;936.8022;;;;
2022/06/19 00:36:40;;;;;;;11.8;3.9;;;;;;;18.7;70.19531;936.7823;;;;
2022/06/19 00:39:05;;;;;;;11.8;4.3;;;;;;;18.65;70.84961;936.7498;;;;
2022/06/19 00:41:30;;;;;;;13.7;3.9;;;;;;;18.64;70.99805;936.7347;;;;
2022/06/19 00:43:58;;;;;;;10.2;3.6;;;;;;;18.73;70.47852;936.5172;;;;
2022/06/19 00:46:23;;;;;;;9;3.5;;;;;;;18.63;71.28711;936.468;;;;
2022/06/19 00:48:49;;;;;;;7.2;3.3;;;;;;;18.6;71.31934;936.4543;;;;
2022/06/19 00:51:14;;;;;;;10.5;3.5;;;;;;;18.63;70.8457;936.4567;;;;
2022/06/19 00:53:45;;;;;;;10.3;3.9;;;;;;;18.6;71.29492;936.3722;;;;
2022/06/19 00:56:09;;;;;;;11.2;3.6;;;;;;;18.58;70.58203;936.3831;;;;
2022/06/19 00:58:35;;;;;;;11.6;3.7;;;;;;;18.62;69.83203;936.3329;;;;
2022/06/19 01:01:00;;;;;;;12.3;4.1;;;;;;;18.35;70.63867;936.2648;;;;
2022/06/19 01:03:26;;;;;;;14.8;4.1;;;;;;;18.36;70.84863;936.1962;;;;
2022/06/19 01:05:55;;;;;;;10.3;3.7;;;;;;;17.96;71.72656;936.2548;;;;
2022/06/19 01:08:20;;;;;;;7.4;3.5;;;;;;;18.02;72.00293;936.1739;;;;
2022/06/19 01:10:47;;;;;;;8.8;3.6;;;;;;;18;72.00977;936.1863;;;;
2022/06/19 01:13:12;;;;;;;11.4;4;;;;;;;18.15;71.57031;936.2404;;;;
2022/06/19 01:15:44;;;;;;;14.8;4.2;;;;;;;18.21;70.76855;936.1993;;;;
2022/06/19 01:18:13;;;;;;;11.9;4.2;;;;;;;18.44;70.15332;936.2525;;;;
2022/06/19 01:20:38;;;;;;;10.1;4;;;;;;;18.46;69.99414;936.1481;;;;
2022/06/19 01:23:03;;;;;;;10.4;4;;;;;;;18.34;70.71875;936.1467;;;;
2022/06/19 01:25:28;;;;;;;9.4;3.5;;;;;;;18.32;70.83203;936.131;;;;
2022/06/19 01:30:19;;;;;;;11.5;4.1;;;;;;;18.17;71.41211;936.0045;;;;
2022/06/19 01:32:44;;;;;;;11.8;3.6;;;;;;;17.96;71.81836;936.0051;;;;
2022/06/19 01:35:16;;;;;;;5.6;3.3;;;;;;;17.83;72.70313;935.9773;;;;
2022/06/19 01:37:41;;;;;;;10.9;3.6;;;;;;;17.73;72.44141;935.9116;;;;
2022/06/19 01:40:15;;;;;;;9.2;3.2;;;;;;;17.9;72.04102;935.8477;;;;
2022/06/19 01:42:44;;;;;;;10.8;4.2;;;;;;;17.55;72.31836;935.8464;;;;
2022/06/19 01:45:17;;;;;;;12.5;3.6;;;;;;;17.65;72.15137;935.7567;;;;
2022/06/19 01:47:44;;;;;;;12;4.3;;;;;;;17.6;72.49121;935.7301;;;;
2022/06/19 01:50:09;;;;;;;9.3;3.9;;;;;;;17.55;72.29688;935.7344;;;;
2022/06/19 01:52:37;;;;;;;10.4;3.8;;;;;;;17.53;72.28223;935.6866;;;;
2022/06/19 01:55:02;;;;;;;11.4;3.9;;;;;;;17.54;72.49316;935.6583;;;;
2022/06/19 01:57:32;;;;;;;11.8;3.9;;;;;;;17.46;72.03906;935.589;;;;
2022/06/19 02:00:00;;;;;;;11.3;3.8;;;;;;;17.54;72.31836;935.486;;;;
2022/06/19 02:02:25;;;;;;;10.8;3.7;;;;;;;17.7;70.96289;935.4653;;;;
2022/06/19 02:04:51;;;;;;;11.4;4.3;;;;;;;17.84;70.48828;935.4663;;;;
2022/06/19 02:07:15;;;;;;;13.1;4;;;;;;;17.92;70.26758;935.4188;;;;
2022/06/19 02:09:40;;;;;;;10.4;4.1;;;;;;;17.89;70.78418;935.4339;;;;
2022/06/19 02:12:09;;;;;;;12.5;4.1;;;;;;;17.78;70.5127;935.4086;;;;
2022/06/19 02:14:34;;;;;;;10.5;3.6;;;;;;;17.87;70.06152;935.3755;;;;
2022/06/19 02:17:02;;;;;;;12.1;3.8;;;;;;;17.93;70.4668;935.3025;;;;
2022/06/19 02:19:27;;;;;;;12.1;3.1;;;;;;;17.85;70.12988;935.2744;;;;
2022/06/19 02:21:53;;;;;;;10.9;3.6;;;;;;;17.94;70.14453;935.2328;;;;
2022/06/19 02:24:18;;;;;;;12.2;3.6;;;;;;;17.81;70.49414;935.2347;;;;
2022/06/19 02:26:45;;;;;;;13.3;4.2;;;;;;;17.62;69.96289;935.1155;;;;
2022/06/19 02:29:11;;;;;;;14.3;4.3;;;;;;;17.82;69.02148;935.1525;;;;
2022/06/19 02:31:36;;;;;;;14.8;4.2;;;;;;;18.08;67.66699;935.1292;;;;
2022/06/19 02:34:01;;;;;;;10.3;3.7;;;;;;;18.12;67.12891;935.0636;;;;
2022/06/19 02:36:29;;;;;;;13.2;3.7;;;;;;;18.05;68.40625;935.0686;;;;
2022/06/19 02:38:54;;;;;;;10.2;3.8;;;;;;;17.84;69.11719;935.1266;;;;
2022/06/19 02:41:19;;;;;;;13.2;4.5;;;;;;;17.89;69.85547;935.1262;;;;
2022/06/19 02:43:44;;;;;;;12;3.6;;;;;;;17.83;70.4043;935.2219;;;;
2022/06/19 02:46:13;;;;;;;11.7;3.9;;;;;;;17.93;70.44336;935.1379;;;;
2022/06/19 02:48:38;;;;;;;14.2;3.8;;;;;;;17.74;70.54102;935.1501;;;;
2022/06/19 02:51:05;;;;;;;11.3;4.7;;;;;;;17.53;71.34277;935.1488;;;;
2022/06/19 02:53:30;;;;;;;11.4;4;;;;;;;17.55;71.20605;935.0815;;;;
2022/06/19 02:55:57;;;;;;;13.6;4.7;;;;;;;17.34;72.35449;935.1342;;;;
2022/06/19 02:58:22;;;;;;;9.8;4;;;;;;;17.41;72.52832;935.1158;;;;
2022/06/19 03:00:47;;;;;;;12.3;3.9;;;;;;;17.53;72.00391;935.226;;;;
2022/06/19 03:03:12;;;;;;;9.9;3.5;;;;;;;17.6;71.75879;935.2084;;;;
2022/06/19 03:05:37;;;;;;;16.7;4.6;;;;;;;17.65;71.61719;935.1883;;;;
2022/06/19 03:08:02;;;;;;;9.8;3.8;;;;;;;17.68;71.59863;935.2355;;;;
2022/06/19 03:10:30;;;;;;;11.5;4;;;;;;;17.66;72.03613;935.2573;;;;
2022/06/19 03:12:53;;;;;;;13.7;4.2;;;;;;;17.6;71.52832;935.1826;;;;
2022/06/19 03:15:25;;;;;;;13.7;3.5;;;;;;;17.74;68.81152;935.2283;;;;
2022/06/19 03:17:52;;;;;;;10.2;4.3;;;;;;;17.67;70.86523;935.2371;;;;
2022/06/19 03:20:18;;;;;;;15.4;3.9;;;;;;;17.76;70.60254;935.2012;;;;
2022/06/19 03:22:43;;;;;;;12.2;4;;;;;;;17.82;70.27539;935.1969;;;;
2022/06/19 03:25:14;;;;;;;10.4;4.3;;;;;;;17.78;70.91895;935.1927;;;;
2022/06/19 03:27:43;;;;;;;12.8;3.9;;;;;;;17.86;70.72168;935.2614;;;;
2022/06/19 03:30:16;;;;;;;12.3;4.5;;;;;;;17.86;70.62891;935.3122;;;;
2022/06/19 03:32:47;;;;;;;15.5;4.8;;;;;;;17.82;70.55371;935.2598;;;;
2022/06/19 03:35:20;;;;;;;11.2;3.8;;;;;;;17.86;70.86328;935.3314;;;;
2022/06/19 03:37:48;;;;;;;10.2;3.6;;;;;;;17.77;71.49707;935.4089;;;;
2022/06/19 03:40:14;;;;;;;12;4.1;;;;;;;17.86;71.68555;935.4208;;;;
2022/06/19 03:42:44;;;;;;;16.2;4.4;;;;;;;17.84;71.38086;935.4866;;;;
2022/06/19 03:45:09;;;;;;;13.3;4.1;;;;;;;17.84;71.38281;935.4841;;;;
2022/06/19 03:47:41;;;;;;;13.8;4.2;;;;;;;17.8;71.55957;935.459;;;;
2022/06/19 03:50:17;;;;;;;13.7;3.8;;;;;;;17.78;72.10352;935.386;;;;
2022/06/19 03:52:47;;;;;;;10.7;4.1;;;;;;;17.87;71.71191;935.423;;;;
2022/06/19 03:55:17;;;;;;;12.2;4.1;;;;;;;17.89;72.13184;935.4677;;;;
2022/06/19 03:57:46;;;;;;;10;4.3;;;;;;;17.94;71.43359;935.4327;;;;
2022/06/19 04:00:13;;;;;;;11.8;4.1;;;;;;;17.98;71.71777;935.4149;;;;
2022/06/19 04:02:44;;;;;;;10.1;4.4;;;;;;;18.02;71.47949;935.3954;;;;
2022/06/19 04:05:09;;;;;;;13.7;4.9;;;;;;;18.07;71.34961;935.3943;;;;
2022/06/19 04:07:40;;;;;;;12.4;5.4;;;;;;;18.1;71.05176;935.347;;;;
2022/06/19 04:10:08;;;;;;;14.5;5.9;;;;;;;17.94;71.64258;935.3585;;;;
2022/06/19 04:12:33;;;;;;;15.7;5.5;;;;;;;17.99;71.34766;935.2896;;;;
2022/06/19 04:14:59;;;;;;;11;4.6;;;;;;;17.79;72.30273;935.3173;;;;
2022/06/19 04:17:24;;;;;;;15;4.1;;;;;;;17.81;72.13086;935.2864;;;;
2022/06/19 04:19:52;;;;;;;13.6;4.4;;;;;;;17.79;72.31348;935.3272;;;;
2022/06/19 04:22:17;;;;;;;10.3;4.2;;;;;;;17.88;72.39746;935.3447;;;;
2022/06/19 04:24:42;;;;;;;13.9;4.9;;;;;;;18.05;71.50879;935.3706;;;;
2022/06/19 04:27:07;;;;;;;12.8;4.2;;;;;;;18.22;71.4209;935.3878;;;;
2022/06/19 04:29:34;;;;;;;14.3;4.4;;;;;;;18.39;71.48242;935.3239;;;;
2022/06/19 04:31:59;;;;;;;7.6;3.6;;;;;;;18.52;70.95703;935.3016;;;;
2022/06/19 04:34:25;;;;;;;11;4.6;;;;;;;18.59;70.6416;935.3077;;;;
2022/06/19 04:36:50;;;;;;;13.2;3.9;;;;;;;18.63;71.58008;935.3832;;;;
2022/06/19 04:39:19;;;;;;;10.8;4;;;;;;;18.61;70.02832;935.4403;;;;
2022/06/19 04:41:44;;;;;;;11.9;4.2;;;;;;;18.75;70.21387;935.4116;;;;
2022/06/19 04:44:13;;;;;;;8.5;4;;;;;;;18.87;70.25586;935.3562;;;;
2022/06/19 04:46:38;;;;;;;17.3;6.1;;;;;;;18.87;70.30176;935.3667;;;;
2022/06/19 04:49:06;;;;;;;16.4;5.4;;;;;;;18.96;70.26074;935.3729;;;;
2022/06/19 04:51:31;;;;;;;12.3;5.2;;;;;;;18.99;70.42676;935.386;;;;
2022/06/19 04:53:57;;;;;;;12.8;5.3;;;;;;;19.1;71.06055;935.3292;;;;
2022/06/19 04:56:23;;;;;;;12.2;5.2;;;;;;;19.15;69.47363;935.3566;;;;
2022/06/19 04:58:49;;;;;;;13.4;7;;;;;;;19.16;69.0332;935.2597;;;;
2022/06/19 05:01:14;;;;;;;11.4;6.2;;;;;;;19.21;68.71484;935.166;;;;
2022/06/19 05:03:42;;;;;;;11.6;5.3;;;;;;;19.85;67.15918;935.2461;;;;
2022/06/19 05:06:07;;;;;;;12.3;5.3;;;;;;;20.94;64.44824;935.2925;;;;
2022/06/19 05:08:32;;;;;;;14;4.5;;;;;;;22.22;60.09766;935.2726;;;;
2022/06/19 05:11:00;;;;;;;11.3;3.8;;;;;;;23.29;55.73926;935.2822;;;;
2022/06/19 05:13:25;;;;;;;13.4;5;;;;;;;24.01;54.62793;935.2872;;;;
2022/06/19 05:15:55;;;;;;;16.7;5.3;;;;;;;24.81;52.42578;935.2438;;;;
2022/06/19 05:18:20;;;;;;;12.7;4.2;;;;;;;25.43;52.85352;935.2822;;;;
2022/06/19 05:20:48;;;;;;;9;3.4;;;;;;;25.86;49.2627;935.1877;;;;
2022/06/19 05:23:13;;;;;;;11.6;3.8;;;;;;;25.97;49.03809;935.1951;;;;
2022/06/19 05:25:40;;;;;;;12.8;4.2;;;;;;;26.54;47.64551;935.1931;;;;
2022/06/19 05:28:05;;;;;;;12.3;5.1;;;;;;;26.87;48.22461;935.1641;;;;
2022/06/19 05:30:30;;;;;;;13.9;5.3;;;;;;;26.84;47.29785;935.1492;;;;
2022/06/19 05:32:55;;;;;;;14.6;4.3;;;;;;;27.48;43.95996;935.0867;;;;
2022/06/19 05:35:24;;;;;;;12.9;4.1;;;;;;;27.85;46.16895;935.0519;;;;
2022/06/19 05:37:49;;;;;;;10.9;4.6;;;;;;;28.72;43.11719;935.1591;;;;
2022/06/19 05:40:14;;;;;;;11.9;4.2;;;;;;;29.72;40.19531;935.1311;;;;
2022/06/19 05:42:41;;;;;;;12.3;3.6;;;;;;;30.46;39.34277;935.0817;;;;
2022/06/19 05:45:06;;;;;;;12.3;3.5;;;;;;;30.61;38.60254;935.0767;;;;
2022/06/19 05:47:38;;;;;;;12.6;4.1;;;;;;;31.06;37.44531;935.058;;;;
2022/06/19 05:50:08;;;;;;;12.5;3.8;;;;;;;31.37;38.17676;935.0237;;;;
2022/06/19 05:52:38;;;;;;;14.1;3.8;;;;;;;32.1;36.34375;935.0276;;;;
2022/06/19 05:55:03;;;;;;;11.8;4.2;;;;;;;32.3;35.2334;935.0256;;;;
2022/06/19 05:57:31;;;;;;;13.5;3.7;;;;;;;32.16;35.83398;935.0377;;;;
2022/06/19 05:59:56;;;;;;;7.5;2.9;;;;;;;32.38;35.19141;935.0383;;;;
2022/06/19 06:02:26;;;;;;;7.4;3.4;;;;;;;31.99;38.62402;935.0974;;;;
2022/06/19 06:04:55;;;;;;;10.7;3.5;;;;;;;31.74;36.80664;934.9651;;;;
2022/06/19 06:07:29;;;;;;;11.5;4.2;;;;;;;32.1;36.7168;934.9635;;;;
2022/06/19 06:09:58;;;;;;;11.2;4.2;;;;;;;31.72;38.05078;934.9866;;;;
2022/06/19 06:12:23;;;;;;;9.8;3.7;;;;;;;31.67;37.97461;934.9771;;;;
2022/06/19 06:14:49;;;;;;;10.8;4.2;;;;;;;32.01;36.76855;934.9726;;;;
2022/06/19 06:17:14;;;;;;;11.5;4;;;;;;;31.06;37.70801;934.9662;;;;
2022/06/19 06:19:40;;;;;;;10.7;3.6;;;;;;;31.51;37.03906;934.9109;;;;
2022/06/19 06:22:05;;;;;;;10.3;3.8;;;;;;;31.69;37.58008;934.943;;;;
2022/06/19 06:24:32;;;;;;;10.3;3.5;;;;;;;32.43;36.44238;934.9821;;;;
2022/06/19 06:26:57;;;;;;;12.5;3.9;;;;;;;32.93;38.87207;935.0422;;;;
2022/06/19 06:29:26;;;;;;;8.3;3.5;;;;;;;34.02;33.41602;934.9761;;;;
2022/06/19 06:31:51;;;;;;;10.6;3.8;;;;;;;34.11;33.5918;934.9684;;;;
2022/06/19 06:34:17;;;;;;;9.2;3.9;;;;;;;34.34;32.76563;935.002;;;;
2022/06/19 06:36:42;;;;;;;17.5;4.2;;;;;;;33.95;35.92676;935.0458;;;;
2022/06/19 06:39:10;;;;;;;9.3;3.2;;;;;;;35.81;32.47266;935.0002;;;;
2022/06/19 06:41:35;;;;;;;8.3;3.4;;;;;;;35.83;34.18945;935.0446;;;;
2022/06/19 06:44:05;;;;;;;8.7;3.2;;;;;;;36.77;30.60254;935.0037;;;;
2022/06/19 06:46:35;;;;;;;8.9;3.9;;;;;;;37.35;28.36133;935.0087;;;;
2022/06/19 06:49:02;;;;;;;6.8;3.5;;;;;;;36.85;28.58496;935.0344;;;;
2022/06/19 06:51:31;;;;;;;7.5;3.6;;;;;;;35.01;29.33887;935.0764;;;;
2022/06/19 06:54:01;;;;;;;12;3.3;;;;;;;36.26;28.58398;935.0309;;;;
2022/06/19 06:56:28;;;;;;;13.5;3.3;;;;;;;36.64;30.43652;935.0691;;;;
2022/06/19 06:58:54;;;;;;;10.9;3.6;;;;;;;36.9;31.54395;935.0581;;;;
2022/06/19 07:01:19;;;;;;;8.5;3.4;;;;;;;36.78;32.15234;935.0392;;;;
2022/06/19 07:03:49;;;;;;;13.6;3.8;;;;;;;36.96;32.33594;935.0089;;;;
2022/06/19 07:06:18;;;;;;;8.9;3.3;;;;;;;37.05;29.92969;935.0394;;;;
2022/06/19 07:08:48;;;;;;;7.9;3.7;;;;;;;37.38;30.10938;935.077;;;;
2022/06/19 07:11:13;;;;;;;9.9;3.5;;;;;;;37.76;30.85059;935.0789;;;;
2022/06/19 07:13:38;;;;;;;9.6;3.4;;;;;;;38.71;27.0957;935.0414;;;;
2022/06/19 07:16:03;;;;;;;11.6;3.5;;;;;;;39.88;26.68848;934.9778;;;;
2022/06/19 07:18:31;;;;;;;11.9;3.8;;;;;;;40.2;25.70703;934.8918;;;;
2022/06/19 07:20:56;;;;;;;10.9;3.5;;;;;;;40.72;25.95605;934.8131;;;;
2022/06/19 07:23:22;;;;;;;9.2;3.3;;;;;;;41.4;25.24707;934.7792;;;;
2022/06/19 07:25:48;;;;;;;9.4;3.7;;;;;;;41.95;24.1748;934.7689;;;;
2022/06/19 07:28:17;;;;;;;12.9;3.7;;;;;;;41.02;24.34668;934.7595;;;;
2022/06/19 07:30:42;;;;;;;7.3;3.7;;;;;;;41.93;22.42285;934.8215;;;;
2022/06/19 07:33:09;;;;;;;7.1;3.6;;;;;;;42.77;21.98535;934.7823;;;;
2022/06/19 07:35:34;;;;;;;9.3;3.3;;;;;;;42.45;21.61426;934.8226;;;;
2022/06/19 07:38:02;;;;;;;8.9;3.7;;;;;;;41.57;23.31152;934.7947;;;;
2022/06/19 07:40:27;;;;;;;7.4;3.5;;;;;;;41.66;25.86133;934.7877;;;;
2022/06/19 07:42:52;;;;;;;12.5;3.8;;;;;;;41.78;23.1748;934.7943;;;;
2022/06/19 07:45:45;;;;;;;9.1;3.8;;;;;;;42.03;23.38379;934.7346;;;;
2022/06/19 07:50:32;;;;;;;9.1;3.7;;;;;;;41.41;23.46289;934.6069;;;;
2022/06/19 07:53:02;;;;;;;8.1;3.4;;;;;;;41.03;23.93164;934.6018;;;;
2022/06/19 07:55:47;;;;;;;9;4;;;;;;;41.81;23.01758;934.5872;;;;
2022/06/19 07:58:00;;;;;;;8.3;3.6;;;;;;;42;21.6543;934.6044;;;;
2022/06/19 08:00:32;;;;;;;7.4;3.2;;;;;;;42.73;20.97754;934.5175;;;;
2022/06/19 08:03:00;;;;;;;9.6;3.6;;;;;;;42.3;21.33789;934.5134;;;;
2022/06/19 08:05:30;;;;;;;8.4;3.5;;;;;;;42.38;19.58887;934.4348;;;;
2022/06/19 08:07:57;;;;;;;7.9;3.2;;;;;;;42.91;20.59277;934.4318;;;;
2022/06/19 08:10:27;;;;;;;10.2;3.2;;;;;;;42.94;19.69824;934.4742;;;;
2022/06/19 08:12:58;;;;;;;9.1;3.9;;;;;;;42.19;20.05859;934.5039;;;;
2022/06/19 08:15:37;;;;;;;8.1;3.4;;;;;;;41.83;19.5166;934.467;;;;
2022/06/19 08:18:06;;;;;;;8.9;3.4;;;;;;;41.65;22.22559;934.509;;;;
2022/06/19 08:20:38;;;;;;;6.3;3.2;;;;;;;40.67;23.54688;934.4405;;;;
2022/06/19 08:23:03;;;;;;;12.3;3.4;;;;;;;39.6;23.66309;934.4352;;;;
2022/06/19 08:25:28;;;;;;;11.6;3.4;;;;;;;39.63;23.50586;934.3958;;;;
2022/06/19 08:27:58;;;;;;;9.4;4.2;;;;;;;40.11;22.76172;934.3693;;;;
2022/06/19 08:30:23;;;;;;;8.1;3.4;;;;;;;41.14;21.61523;934.3155;;;;
2022/06/19 08:32:48;;;;;;;8.1;3.1;;;;;;;41.16;22.12891;934.2713;;;;
2022/06/19 08:35:24;;;;;;;7.9;3.7;;;;;;;40.58;20.80762;934.2742;;;;
2022/06/19 08:37:50;;;;;;;9.8;3.2;;;;;;;41.02;20.59473;934.2392;;;;
2022/06/19 08:40:16;;;;;;;14.1;3.9;;;;;;;40.77;19.77734;934.2177;;;;
2022/06/19 08:42:42;;;;;;;8.7;3.3;;;;;;;40.75;22.5;934.2328;;;;
2022/06/19 08:45:13;;;;;;;10.3;3.8;;;;;;;40.17;22.75293;934.2233;;;;
2022/06/19 08:47:38;;;;;;;8;3.3;;;;;;;41.53;22.2207;934.2454;;;;
2022/06/19 08:50:05;;;;;;;9.9;3.5;;;;;;;42.53;20.95605;934.2169;;;;
2022/06/19 08:52:29;;;;;;;12;3.7;;;;;;;40.95;21.97266;934.1579;;;;
2022/06/19 08:54:54;;;;;;;6.3;3.6;;;;;;;38.99;24.3125;934.1472;;;;
2022/06/19 08:57:20;;;;;;;12.6;3.4;;;;;;;39.55;22.63672;934.0908;;;;
2022/06/19 08:59:45;;;;;;;6.8;3.3;;;;;;;39.45;21.29199;934.0388;;;;
2022/06/19 09:02:20;;;;;;;8.6;3.3;;;;;;;38.4;22.95703;934.0204;;;;
2022/06/19 09:07:12;;;;;;;10.3;3.4;;;;;;;39.93;22.43652;934.0068;;;;
2022/06/19 09:09:37;;;;;;;9;3.3;;;;;;;40.48;23.40234;934.0823;;;;
2022/06/19 09:12:02;;;;;;;9.2;3.5;;;;;;;38.66;27.71289;934.0402;;;;
2022/06/19 09:14:28;;;;;;;7.5;3.2;;;;;;;39.34;26.71875;934.0767;;;;
2022/06/19 09:16:57;;;;;;;7.1;3.2;;;;;;;39.35;27.96094;933.9789;;;;
2022/06/19 09:19:22;;;;;;;9.6;3.5;;;;;;;39.44;27.13867;933.9793;;;;
2022/06/19 09:21:47;;;;;;;12.4;3.8;;;;;;;39.78;25.24414;933.9559;;;;
2022/06/19 09:24:12;;;;;;;8.9;3.6;;;;;;;40.16;25.80273;933.9675;;;;
2022/06/19 09:26:37;;;;;;;32.3;5.6;;;;;;;39.25;27.10254;933.9108;;;;
2022/06/19 09:29:04;;;;;;;31.3;5;;;;;;;39.78;26.59766;933.9249;;;;
2022/06/19 09:31:31;;;;;;;18.9;4.1;;;;;;;40.03;27.40527;933.9044;;;;
2022/06/19 09:33:56;;;;;;;10.9;3.2;;;;;;;39.33;25.70801;933.8745;;;;
2022/06/19 09:36:21;;;;;;;17.5;3.2;;;;;;;40.11;23.55469;933.8926;;;;
2022/06/19 09:38:47;;;;;;;9.2;3;;;;;;;40.37;23.39746;933.8615;;;;
2022/06/19 09:41:12;;;;;;;10.2;3.2;;;;;;;40.83;23.53027;933.9001;;;;
2022/06/19 09:43:37;;;;;;;8.9;3.3;;;;;;;40.69;25.00098;933.9171;;;;
2022/06/19 09:46:02;;;;;;;8.3;3.2;;;;;;;39.49;23.81543;933.8428;;;;
2022/06/19 09:48:27;;;;;;;10.5;3.7;;;;;;;40.03;22.87988;933.791;;;;
2022/06/19 09:50:52;;;;;;;10.2;3.6;;;;;;;40.1;23.5791;933.7964;;;;
2022/06/19 09:53:18;;;;;;;9.1;3.6;;;;;;;39.78;23.74512;933.7363;;;;
2022/06/19 09:55:43;;;;;;;12.4;3.8;;;;;;;39.73;23.99902;933.7416;;;;
2022/06/19 09:58:10;;;;;;;9.7;3.7;;;;;;;39.85;23.72461;933.7394;;;;
2022/06/19 10:00:33;;;;;;;10.8;3.7;;;;;;;39.5;25.76563;933.7261;;;;
2022/06/19 10:02:58;;;;;;;7.4;2.8;;;;;;;39.03;27.72266;933.7352;;;;
2022/06/19 10:05:25;;;;;;;10;3.2;;;;;;;38.84;25.83789;933.7004;;;;
2022/06/19 10:07:53;;;;;;;9;3.4;;;;;;;38.6;26.99219;933.6472;;;;
2022/06/19 10:10:16;;;;;;;10.8;3.5;;;;;;;37.91;26.04102;933.6278;;;;
2022/06/19 10:12:42;;;;;;;10.7;3.6;;;;;;;37.62;26.66797;933.6131;;;;
2022/06/19 10:15:15;;;;;;;9.5;4;;;;;;;36.93;28.01953;933.5674;;;;
2022/06/19 10:17:40;;;;;;;9.3;3.1;;;;;;;36.83;28.35352;933.5609;;;;
2022/06/19 10:20:05;;;;;;;9.9;3.7;;;;;;;36.83;28.89844;933.5813;;;;
2022/06/19 10:22:31;;;;;;;13;3.4;;;;;;;36.5;28.84082;933.5697;;;;
2022/06/19 10:24:57;;;;;;;9.4;3.5;;;;;;;36.65;29.04492;933.5144;;;;
2022/06/19 10:27:24;;;;;;;11.2;3.7;;;;;;;36.21;29.62207;933.4628;;;;
2022/06/19 10:29:50;;;;;;;7.6;2.9;;;;;;;36.1;30.93262;933.4578;;;;
2022/06/19 10:32:15;;;;;;;14;4;;;;;;;36.19;30.66016;933.3791;;;;
2022/06/19 10:34:42;;;;;;;12.3;3.5;;;;;;;36.01;33.47754;933.4317;;;;
2022/06/19 10:37:09;;;;;;;8.4;3.4;;;;;;;35.62;32.48242;933.3524;;;;
2022/06/19 10:39:35;;;;;;;8.1;3.8;;;;;;;34.96;33.24414;933.3092;;;;
2022/06/19 10:42:04;;;;;;;11.5;3.6;;;;;;;34.78;31.5791;933.3541;;;;
2022/06/19 10:44:27;;;;;;;10;3.6;;;;;;;34.96;32.97852;933.2795;;;;
2022/06/19 10:46:52;;;;;;;10.7;3.9;;;;;;;35.17;34.12891;933.3121;;;;
2022/06/19 10:49:21;;;;;;;10.3;3.5;;;;;;;35.45;31.79492;933.2333;;;;
2022/06/19 10:51:47;;;;;;;11.9;3.3;;;;;;;35.53;31.61816;933.3016;;;;
2022/06/19 10:54:12;;;;;;;12.3;3.5;;;;;;;35.51;31.83496;933.3206;;;;
2022/06/19 10:56:37;;;;;;;8.4;2.9;;;;;;;35.43;29.99414;933.2404;;;;
2022/06/19 10:59:06;;;;;;;7.4;3;;;;;;;35.44;31.10547;933.2698;;;;
2022/06/19 11:04:11;;;;;;;9.2;3.9;;;;;;;35.11;33.24316;933.2123;;;;
2022/06/19 11:06:28;;;;;;;8.9;3;;;;;;;35.32;32.49805;933.2222;;;;
2022/06/19 11:08:57;;;;;;;11.6;3.6;;;;;;;35.6;31.9375;933.1814;;;;
2022/06/19 11:11:22;;;;;;;11;4;;;;;;;35.65;30.76953;933.1553;;;;
2022/06/19 11:13:47;;;;;;;8.5;3.4;;;;;;;35.7;31.29199;933.1486;;;;
2022/06/19 11:16:12;;;;;;;9.8;3.8;;;;;;;35.32;33.22168;933.1311;;;;
2022/06/19 11:18:40;;;;;;;11.6;4.4;;;;;;;35.17;33.45215;933.1559;;;;
2022/06/19 11:21:05;;;;;;;9.7;3.7;;;;;;;35.25;31.33398;933.1584;;;;
2022/06/19 11:23:34;;;;;;;13.1;3.7;;;;;;;35.21;33.66016;933.1061;;;;
2022/06/19 11:25:59;;;;;;;9.4;3.8;;;;;;;34.85;34.01953;932.9811;;;;
2022/06/19 11:28:25;;;;;;;17.8;3.6;;;;;;;35.06;30.80176;933.0059;;;;
2022/06/19 11:30:50;;;;;;;9.8;3.7;;;;;;;35.28;32.33789;932.9384;;;;
2022/06/19 11:33:15;;;;;;;10.2;3.7;;;;;;;35.34;30.19336;932.875;;;;
2022/06/19 11:35:41;;;;;;;12.5;3.8;;;;;;;35.04;32.41699;932.8398;;;;
2022/06/19 11:38:06;;;;;;;11.3;4;;;;;;;34.67;35.04199;932.7667;;;;
2022/06/19 11:40:31;;;;;;;12.3;4.2;;;;;;;34.81;32.69043;932.7991;;;;
2022/06/19 11:42:57;;;;;;;9.9;3.7;;;;;;;34.87;33.71973;932.8127;;;;
2022/06/19 11:45:22;;;;;;;11.2;3.2;;;;;;;35.02;32.4043;932.7739;;;;
2022/06/19 11:47:50;;;;;;;8.5;3.4;;;;;;;35.18;31.38965;932.805;;;;
2022/06/19 11:50:21;;;;;;;7.8;3.7;;;;;;;35.34;31.4248;932.8072;;;;
2022/06/19 11:52:47;;;;;;;8.5;3.8;;;;;;;35.46;33.05078;932.7547;;;;
2022/06/19 11:55:12;;;;;;;14.8;4.4;;;;;;;35.28;32.21777;932.7083;;;;
2022/06/19 11:57:37;;;;;;;12.8;4.3;;;;;;;35.03;33.8877;932.7232;;;;
2022/06/19 12:00:02;;;;;;;13.8;3.8;;;;;;;35.3;32.27832;932.6953;;;;
2022/06/19 12:02:27;;;;;;;10.9;4.1;;;;;;;35.53;31.06348;932.6765;;;;
2022/06/19 12:04:56;;;;;;;12.4;3.4;;;;;;;35.54;32.63477;932.6373;;;;
2022/06/19 12:07:26;;;;;;;16.4;4.3;;;;;;;35.53;32.65723;932.6312;;;;
2022/06/19 12:09:51;;;;;;;12.3;3.8;;;;;;;35.44;31.0332;932.5298;;;;
2022/06/19 12:12:18;;;;;;;20.4;4.9;;;;;;;35.36;33.24902;932.5533;;;;
2022/06/19 12:14:43;;;;;;;11.7;3.8;;;;;;;35.4;31.41699;932.5466;;;;
2022/06/19 12:17:08;;;;;;;17.3;4.4;;;;;;;35.49;33.14941;932.5236;;;;
2022/06/19 12:19:36;;;;;;;10.6;3.8;;;;;;;35.54;32.00586;932.5032;;;;
2022/06/19 12:22:04;;;;;;;13.9;4.2;;;;;;;35.6;32.3125;932.4867;;;;
2022/06/19 12:24:29;;;;;;;15.6;4.4;;;;;;;35.65;32.12207;932.509;;;;
2022/06/19 12:26:57;;;;;;;15.7;4.2;;;;;;;35.69;32.0166;932.4758;;;;
2022/06/19 12:29:22;;;;;;;11.8;3.8;;;;;;;35.61;32.34863;932.3989;;;;
2022/06/19 12:31:49;;;;;;;11.2;3.8;;;;;;;35.36;34.85547;932.4236;;;;
2022/06/19 12:34:15;;;;;;;10.5;3.8;;;;;;;35.18;34.1416;932.3624;;;;
2022/06/19 12:36:46;;;;;;;10.4;4;;;;;;;35.04;34.45605;932.4015;;;;
2022/06/19 12:39:14;;;;;;;12.7;3.9;;;;;;;34.98;30.62793;932.3678;;;;
2022/06/19 12:41:39;;;;;;;16.2;4.3;;;;;;;35.01;32.76563;932.3434;;;;
2022/06/19 12:44:04;;;;;;;9.5;3.8;;;;;;;34.93;33.38672;932.3142;;;;
2022/06/19 12:46:29;;;;;;;13.4;4.4;;;;;;;34.84;34.61035;932.2852;;;;
2022/06/19 12:48:55;;;;;;;12.7;4.2;;;;;;;34.42;34.41016;932.3075;;;;
2022/06/19 12:51:20;;;;;;;16.9;4.1;;;;;;;34.35;34.65723;932.2548;;;;
2022/06/19 12:53:48;;;;;;;8.9;4;;;;;;;34.24;34.36035;932.2339;;;;
2022/06/19 12:56:13;;;;;;;11.7;4.2;;;;;;;34.36;33.80273;932.1633;;;;
2022/06/19 12:58:38;;;;;;;11.9;4;;;;;;;34.54;37.11816;932.207;;;;
2022/06/19 13:01:03;;;;;;;11.7;3.9;;;;;;;34.65;33.31836;932.1665;;;;
2022/06/19 13:03:31;;;;;;;11.8;4.4;;;;;;;34.49;35.53516;932.1661;;;;
2022/06/19 13:06:01;;;;;;;12.3;4;;;;;;;34.57;32.96289;932.1689;;;;
2022/06/19 13:08:26;;;;;;;9.1;3.6;;;;;;;34.43;34.38574;932.1131;;;;
2022/06/19 13:10:52;;;;;;;16.2;4.2;;;;;;;34.29;34.52051;932.1454;;;;
2022/06/19 13:13:17;;;;;;;12.2;4.6;;;;;;;34.17;36.33008;932.0298;;;;
2022/06/19 13:15:42;;;;;;;11.7;4.2;;;;;;;34.37;33.73145;932.0494;;;;
2022/06/19 13:18:07;;;;;;;9.9;4;;;;;;;34.52;34.17676;932.058;;;;
2022/06/19 13:20:33;;;;;;;10.1;3.7;;;;;;;34.62;33.66504;932.0256;;;;
2022/06/19 13:22:58;;;;;;;10.3;4.2;;;;;;;34.52;35.44141;931.9841;;;;
2022/06/19 13:25:27;;;;;;;12.4;4;;;;;;;34.49;32.98047;932.0762;;;;
2022/06/19 13:27:52;;;;;;;15.8;4.2;;;;;;;34.37;35.44238;932.1326;;;;
2022/06/19 13:30:20;;;;;;;10.6;4.6;;;;;;;34.55;32.51563;932.0733;;;;
2022/06/19 13:32:46;;;;;;;12.8;4;;;;;;;34.7;32.80273;932.0474;;;;
2022/06/19 13:35:15;;;;;;;11;4.4;;;;;;;34.65;33.20996;932.0335;;;;
2022/06/19 13:37:40;;;;;;;10;4;;;;;;;34.84;33.65723;932.0612;;;;
2022/06/19 13:40:05;;;;;;;10.9;3.9;;;;;;;34.94;31.77148;931.9971;;;;
2022/06/19 13:42:36;;;;;;;10.7;4.3;;;;;;;35.11;31.6377;931.9868;;;;
2022/06/19 13:45:02;;;;;;;15.5;4.5;;;;;;;34.97;33.23242;931.8915;;;;
2022/06/19 13:47:27;;;;;;;12.8;4.2;;;;;;;35.14;32.00195;931.8795;;;;
2022/06/19 13:49:52;;;;;;;20.2;5.2;;;;;;;35.13;32.18262;931.886;;;;
2022/06/19 13:52:19;;;;;;;9.2;3.8;;;;;;;34.82;33.75195;931.8885;;;;
2022/06/19 13:54:44;;;;;;;15.3;4.6;;;;;;;34.73;32.66113;931.9281;;;;
2022/06/19 13:57:10;;;;;;;11.7;4.4;;;;;;;34.87;32.33203;931.8753;;;;
2022/06/19 13:59:35;;;;;;;9.2;3.6;;;;;;;34.96;32.50781;931.791;;;;
2022/06/19 14:02:06;;;;;;;12.6;4.5;;;;;;;35.04;31.25879;931.7621;;;;
2022/06/19 14:04:50;;;;;;;13.3;4.5;;;;;;;34.82;33.57129;931.7892;;;;
2022/06/19 14:06:59;;;;;;;14.5;4.1;;;;;;;34.68;31.66797;931.7256;;;;
2022/06/19 14:09:24;;;;;;;13.9;5.1;;;;;;;34.64;33.78711;931.777;;;;
2022/06/19 14:12:07;;;;;;;13.7;4.4;;;;;;;34.59;34.1084;931.7286;;;;
2022/06/19 14:14:18;;;;;;;14.1;4.6;;;;;;;34.67;32.55957;931.7311;;;;
2022/06/19 14:16:43;;;;;;;12.9;4.5;;;;;;;34.84;33.5127;931.6928;;;;
2022/06/19 14:19:13;;;;;;;11.4;4;;;;;;;35.01;33.63379;931.7188;;;;
2022/06/19 14:21:38;;;;;;;10.4;4;;;;;;;35.09;32.58984;931.7183;;;;
2022/06/19 14:24:05;;;;;;;15.3;4.4;;;;;;;35.14;31.96582;931.7062;;;;